createdAt,value
2019-02-20T00:01:19.381Z,9.88
2019-02-20T00:03:52.472Z,14.38
2019-02-20T00:06:25.965Z,9.33
2019-02-20T00:09:00.469Z,12.18
2019-02-20T00:11:34.039Z,10.28
2019-02-20T00:14:07.295Z,10.58
2019-02-20T00:16:41.232Z,8.55
2019-02-20T00:19:14.732Z,12.43
2019-02-20T00:21:47.888Z,10.98
2019-02-20T00:24:21.204Z,8.75
2019-02-20T00:26:54.674Z,9.33
2019-02-20T00:29:28.199Z,11.78
2019-02-20T00:32:01.267Z,8.35
2019-02-20T00:34:34.366Z,21.65
2019-02-20T00:37:08.143Z,6.78
2019-02-20T00:39:41.492Z,7.03
2019-02-20T00:42:15.295Z,15.08
2019-02-20T00:45:07.815Z,10.23
2019-02-20T00:48:03.833Z,15.08
2019-02-20T00:50:37.757Z,13.75
2019-02-20T00:53:36.568Z,10.08
2019-02-20T00:56:09.756Z,12.85
2019-02-20T00:58:43.546Z,9.65
2019-02-20T01:01:17.442Z,9.68
2019-02-20T01:03:50.535Z,9.63
2019-02-20T01:06:23.942Z,6.87
2019-02-20T01:08:57.145Z,7.65
2019-02-20T01:11:30.627Z,12.18
2019-02-20T01:14:03.204Z,7.92
2019-02-20T01:16:37.053Z,12.03
2019-02-20T01:19:10.040Z,11.68
2019-02-20T01:21:42.687Z,9.88
2019-02-20T01:24:15.673Z,10.20
2019-02-20T01:26:49.079Z,10.03
2019-02-20T01:29:22.692Z,9.33
2019-02-20T01:31:55.659Z,7.72
2019-02-20T01:34:27.920Z,8.93
2019-02-20T01:37:01.325Z,16.27
2019-02-20T01:39:34.504Z,11.65
2019-02-20T19:32:30.919Z,18.42
2019-02-20T19:35:51.643Z,18.82
2019-02-20T19:39:02.636Z,16.77
2019-02-20T19:42:20.464Z,22.50
2019-02-20T19:45:37.170Z,19.98
2019-02-20T19:48:33.999Z,17.90
2019-02-20T19:51:34.689Z,28.73
2019-02-20T19:54:50.487Z,23.42
2019-02-20T19:58:13.308Z,17.92
2019-02-20T20:01:04.429Z,20.00
2019-02-20T20:04:18.965Z,17.92
2019-02-20T20:07:58.025Z,20.17
2019-02-20T20:10:58.664Z,18.90
2019-02-20T20:14:16.117Z,20.70
2019-02-20T20:17:23.284Z,16.93
2019-02-20T20:20:12.170Z,26.45
2019-02-20T20:23:10.225Z,18.82
2019-02-20T20:26:04.882Z,20.60
2019-02-20T20:29:28.071Z,25.10
2019-02-20T20:32:17.579Z,20.45
2019-02-20T20:35:23.339Z,17.55
2019-02-20T20:38:27.597Z,22.17
2019-02-20T20:41:27.672Z,25.88
2019-02-20T20:44:37.681Z,23.77
2019-02-20T20:48:11.222Z,23.60
2019-02-20T20:51:23.043Z,23.75
2019-02-20T20:54:33.775Z,20.23
2019-02-20T20:57:28.971Z,21.70
2019-02-20T21:00:31.146Z,18.07
2019-02-20T21:03:07.288Z,26.97
2019-02-20T21:06:03.469Z,26.10
2019-02-20T21:09:33.763Z,22.67
2019-02-20T21:12:53.795Z,18.37
2019-02-20T21:16:23.589Z,22.52
2019-02-20T21:19:42.040Z,23.47
2019-02-20T21:22:51.386Z,19.75
2019-02-20T21:26:01.160Z,17.55
2019-02-20T21:29:28.371Z,20.62
2019-02-20T21:32:26.758Z,23.83
2019-02-20T21:35:17.301Z,19.87
2019-02-20T21:38:38.311Z,32.88
2019-02-20T21:41:19.288Z,25.52
2019-02-20T21:44:26.045Z,20.48
2019-02-20T21:47:10.219Z,27.20
2019-02-20T21:50:20.900Z,24.85
2019-02-20T21:53:18.898Z,19.70
2019-02-20T21:56:25.692Z,20.32
2019-02-20T21:59:39.066Z,24.57
2019-02-20T22:02:49.015Z,23.77
2019-02-20T22:06:15.319Z,23.60
2019-02-20T22:09:19.255Z,30.20
2019-02-20T22:12:36.769Z,21.73
2019-02-20T22:15:28.674Z,21.37
2019-02-20T22:18:42.003Z,23.00
2019-02-20T22:22:06.129Z,25.77
2019-02-20T22:25:25.610Z,19.07
2019-02-20T22:28:34.593Z,22.45
2019-02-20T22:31:55.351Z,21.85
2019-02-20T22:35:05.573Z,19.73
2019-02-20T22:38:21.394Z,18.45
2019-02-20T22:41:42.506Z,25.32
2019-02-20T22:45:08.321Z,26.82
2019-02-20T22:48:31.434Z,26.10
2019-02-20T22:51:53.929Z,20.30
2019-02-20T22:55:13.537Z,23.10
2019-02-20T22:58:03.222Z,27.40
2019-02-20T23:01:07.106Z,23.57
2019-02-20T23:04:30.789Z,22.22
2019-02-20T23:08:03.613Z,20.23
2019-02-20T23:11:27.562Z,28.77
2019-02-20T23:14:23.483Z,23.20
2019-02-20T23:16:56.055Z,20.27
2019-02-20T23:19:29.587Z,18.85
2019-02-20T23:22:03.370Z,20.35
2019-02-20T23:24:36.776Z,23.83
2019-02-20T23:27:10.917Z,22.85
2019-02-20T23:29:44.855Z,21.75
2019-02-20T23:32:18.319Z,22.55
2019-02-20T23:34:50.995Z,22.70
2019-02-20T23:37:24.544Z,24.87
2019-02-20T23:39:57.568Z,20.40
2019-02-20T23:42:30.729Z,25.25
2019-02-20T23:45:04.356Z,18.77
2019-02-20T23:47:37.763Z,20.95
2019-02-20T23:50:11.362Z,22.07
2019-02-20T23:52:44.988Z,22.98
2019-02-20T23:55:18.863Z,18.15
2019-02-20T23:57:51.580Z,23.65
